createdAt,value
2019-04-26T00:02:18.843Z,3.03
2019-04-26T00:04:47.772Z,3.87
2019-04-26T00:07:16.638Z,3.00
2019-04-26T00:09:45.720Z,2.97
2019-04-26T00:12:19.075Z,2.47
2019-04-26T00:15:06.228Z,2.43
2019-04-26T00:17:36.808Z,3.27
2019-04-26T00:20:07.790Z,3.03
2019-04-26T00:22:36.551Z,2.93
2019-04-26T00:25:06.835Z,2.63
2019-04-26T00:27:35.575Z,2.90
2019-04-26T00:30:05.797Z,3.10
2019-04-26T00:32:34.601Z,2.70
2019-04-26T00:35:03.380Z,2.87
2019-04-26T00:37:32.193Z,2.80
2019-04-26T00:40:01.026Z,3.03
2019-04-26T00:42:31.071Z,3.30
2019-04-26T00:44:59.830Z,2.80
2019-04-26T00:47:29.330Z,3.00
2019-04-26T00:49:58.786Z,3.43
2019-04-26T00:52:28.852Z,3.03
2019-04-26T00:54:58.671Z,2.87
2019-04-26T00:57:28.301Z,2.63
2019-04-26T00:59:57.369Z,2.73
2019-04-26T01:02:30.592Z,2.57
2019-04-26T01:04:59.322Z,3.03
2019-04-26T01:07:28.167Z,2.57
2019-04-26T01:09:56.920Z,2.90
2019-04-26T01:12:26.011Z,3.07
2019-04-26T01:14:54.801Z,3.00
2019-04-26T01:17:24.494Z,3.50
2019-04-26T01:19:54.842Z,3.57
2019-04-26T01:22:27.519Z,3.20
2019-04-26T01:24:57.403Z,3.27
2019-04-26T01:27:28.610Z,3.00
2019-04-26T01:30:00.310Z,2.90
2019-04-26T01:32:31.107Z,3.60
2019-04-26T01:34:59.839Z,3.37
2019-04-26T01:37:30.959Z,3.50
2019-04-26T01:40:04.575Z,3.10
2019-04-26T01:42:41.620Z,3.67
2019-04-26T01:45:25.838Z,3.00
2019-04-26T01:47:57.551Z,3.00
2019-04-26T01:50:27.795Z,3.00
2019-04-26T01:52:57.609Z,3.50
2019-04-26T01:55:29.273Z,3.13
2019-04-26T01:58:00.788Z,3.73
2019-04-26T02:00:34.706Z,3.23
2019-04-26T02:03:14.614Z,3.17
2019-04-26T02:05:43.364Z,3.10
2019-04-26T02:08:12.120Z,3.60
2019-04-26T02:10:40.860Z,3.03
2019-04-26T02:13:09.720Z,3.40
2019-04-26T02:15:38.455Z,3.17
2019-04-26T02:18:07.204Z,3.73
2019-04-26T02:20:51.602Z,3.07
2019-04-26T02:23:39.918Z,4.00
2019-04-26T02:26:28.265Z,3.93
2019-04-26T02:28:57.416Z,4.10
2019-04-26T02:31:27.359Z,4.10
2019-04-26T02:33:57.621Z,3.73
2019-04-26T02:36:44.926Z,3.80
2019-04-26T02:38:58.964Z,3.93
2019-04-26T02:41:29.941Z,3.60
2019-04-26T02:44:01.739Z,3.33
2019-04-26T02:46:52.928Z,4.40
2019-04-26T02:49:23.709Z,3.97
2019-04-26T02:52:10.635Z,3.67
2019-04-26T02:54:51.151Z,3.70
2019-04-26T02:57:29.774Z,3.87
2019-04-26T03:00:02.234Z,4.60
2019-04-26T03:02:33.238Z,4.67
2019-04-26T03:05:04.837Z,4.47
2019-04-26T03:07:56.833Z,5.17
2019-04-26T03:10:32.637Z,4.50
2019-04-26T03:13:04.487Z,5.00
2019-04-26T03:15:40.343Z,5.07
2019-04-26T03:18:28.338Z,5.20
2019-04-26T03:21:05.239Z,5.10
2019-04-26T03:23:56.345Z,5.17
2019-04-26T03:26:13.195Z,4.63
2019-04-26T03:28:56.850Z,4.87
2019-04-26T03:31:53.308Z,6.07
2019-04-26T03:34:55.391Z,5.30
2019-04-26T03:37:33.802Z,5.37
2019-04-26T03:40:38.976Z,6.10
2019-04-26T03:43:36.075Z,5.80
2019-04-26T03:46:13.610Z,5.63
2019-04-26T03:49:05.045Z,6.30
2019-04-26T03:51:51.504Z,6.10
2019-04-26T03:54:29.635Z,6.53
2019-04-26T03:57:19.360Z,6.63
2019-04-26T03:59:52.708Z,6.57
2019-04-26T04:02:31.759Z,7.13
2019-04-26T04:05:10.670Z,7.47
2019-04-26T04:07:47.204Z,6.63
2019-04-26T04:10:37.482Z,7.03
2019-04-26T04:13:40.732Z,6.33
2019-04-26T04:16:34.693Z,6.60
2019-04-26T04:19:24.678Z,7.87
2019-04-26T04:22:17.248Z,7.03
2019-04-26T04:24:50.625Z,7.23
2019-04-26T04:27:28.546Z,8.03
2019-04-26T04:30:24.755Z,6.97
2019-04-26T04:33:23.499Z,7.23
2019-04-26T04:35:55.182Z,7.30
2019-04-26T04:38:50.612Z,7.30
2019-04-26T04:41:29.632Z,7.23
2019-04-26T04:44:37.632Z,7.63
2019-04-26T04:47:26.028Z,7.13
2019-04-26T04:50:13.919Z,7.23
2019-04-26T04:52:54.685Z,7.53
2019-04-26T04:55:42.807Z,8.23
2019-04-26T04:58:14.616Z,7.53
2019-04-26T05:00:53.955Z,7.70
2019-04-26T05:03:53.186Z,7.87
2019-04-26T05:06:32.181Z,7.67
2019-04-26T05:09:07.066Z,7.17
2019-04-26T05:11:55.026Z,7.00
2019-04-26T05:14:35.862Z,7.17
2019-04-26T05:17:36.592Z,7.13
2019-04-26T05:20:26.033Z,7.00
2019-04-26T05:23:15.917Z,6.43
2019-04-26T05:26:16.320Z,7.03
2019-04-26T05:29:09.453Z,7.57
2019-04-26T05:31:51.521Z,7.87
2019-04-26T05:34:37.024Z,7.07
2019-04-26T05:37:37.247Z,6.23
2019-04-26T05:40:30.007Z,7.50
2019-04-26T05:43:30.183Z,6.53
2019-04-26T05:46:18.268Z,7.13
2019-04-26T05:48:57.879Z,6.40
2019-04-26T05:51:58.414Z,7.10
2019-04-26T05:54:56.145Z,5.87
2019-04-26T05:57:34.829Z,5.73
2019-04-26T06:00:26.212Z,6.47
2019-04-26T06:03:34.704Z,5.83
2019-04-26T06:06:29.153Z,6.03
2019-04-26T06:09:14.145Z,5.43
2019-04-26T06:11:47.466Z,4.77
2019-04-26T06:14:52.944Z,4.93
2019-04-26T06:17:40.724Z,4.63
2019-04-26T06:20:32.186Z,4.60
2019-04-26T06:23:12.995Z,4.67
2019-04-26T06:26:00.909Z,4.70
2019-04-26T06:28:47.900Z,4.70
2019-04-26T06:31:28.772Z,4.83
2019-04-26T06:34:09.381Z,5.00
2019-04-26T06:36:45.446Z,4.93
2019-04-26T06:39:27.669Z,4.27
2019-04-26T06:42:11.657Z,4.20
2019-04-26T06:45:26.528Z,4.50
2019-04-26T06:48:08.461Z,4.50
2019-04-26T06:50:52.306Z,4.20
2019-04-26T06:53:23.994Z,4.50
2019-04-26T06:56:00.907Z,4.10
2019-04-26T06:58:41.403Z,3.83
2019-04-26T07:01:27.923Z,4.13
2019-04-26T07:04:08.297Z,3.83
2019-04-26T07:06:58.201Z,3.80
2019-04-26T07:09:52.626Z,4.27
2019-04-26T07:12:28.932Z,3.40
2019-04-26T07:15:02.166Z,3.97
2019-04-26T07:17:46.147Z,4.80
2019-04-26T07:20:32.382Z,4.00
2019-04-26T07:23:31.112Z,4.03
2019-04-26T07:26:04.553Z,3.90
2019-04-26T07:28:58.186Z,4.90
2019-04-26T07:31:47.868Z,4.50
2019-04-26T07:34:43.652Z,4.67
2019-04-26T07:37:51.375Z,5.37
2019-04-26T07:40:53.218Z,4.83
2019-04-26T07:43:32.453Z,5.00
2019-04-26T07:46:28.209Z,4.70
2019-04-26T07:49:12.535Z,4.80
2019-04-26T07:51:49.736Z,4.27
2019-04-26T07:54:24.226Z,5.43
2019-04-26T07:57:12.880Z,4.63
2019-04-26T07:59:44.536Z,4.63
2019-04-26T08:02:23.783Z,5.13
2019-04-26T08:04:58.112Z,5.17
2019-04-26T08:07:29.913Z,5.23
2019-04-26T08:10:10.594Z,4.97
2019-04-26T08:12:42.020Z,5.50
2019-04-26T08:15:36.956Z,5.87
2019-04-26T08:18:10.821Z,5.23
2019-04-26T08:20:50.087Z,4.70
2019-04-26T08:23:41.138Z,5.77
2019-04-26T08:26:01.386Z,5.07
2019-04-26T08:28:32.772Z,5.40
2019-04-26T08:31:04.767Z,5.77
2019-04-26T08:33:40.980Z,5.30
2019-04-26T08:36:08.854Z,5.53
2019-04-26T08:38:38.380Z,6.10
2019-04-26T08:41:09.749Z,6.47
2019-04-26T08:43:47.478Z,5.80
2019-04-26T08:46:32.313Z,6.07
2019-04-26T08:49:09.655Z,5.73
2019-04-26T08:51:40.525Z,6.20
2019-04-26T08:54:11.714Z,5.30
2019-04-26T08:56:46.203Z,5.80
2019-04-26T08:59:26.812Z,6.43
2019-04-26T09:02:07.018Z,5.57
2019-04-26T09:04:46.628Z,6.60
2019-04-26T09:07:20.056Z,5.37
2019-04-26T09:09:57.320Z,5.30
2019-04-26T09:12:24.051Z,5.90
2019-04-26T09:14:55.980Z,6.63
2019-04-26T09:17:27.887Z,5.30
2019-04-26T09:19:58.145Z,5.27
2019-04-26T09:22:27.915Z,6.17
2019-04-26T09:24:59.432Z,5.97
2019-04-26T09:27:33.124Z,6.73
2019-04-26T09:30:15.320Z,5.93
2019-04-26T09:32:45.888Z,5.60
2019-04-26T09:35:15.259Z,5.70
2019-04-26T09:37:45.062Z,4.93
2019-04-26T09:40:21.197Z,5.37
2019-04-26T09:42:52.399Z,4.80
2019-04-26T09:45:40.718Z,5.00
2019-04-26T09:48:14.087Z,5.50
2019-04-26T09:50:44.492Z,5.40
2019-04-26T09:53:13.365Z,5.03
2019-04-26T09:55:42.186Z,5.37
2019-04-26T09:58:11.023Z,4.63
2019-04-26T10:00:39.896Z,4.93
2019-04-26T10:03:09.299Z,5.90
2019-04-26T10:05:39.133Z,5.03
2019-04-26T10:08:08.273Z,5.43
2019-04-26T10:10:38.311Z,5.73
2019-04-26T10:13:24.843Z,5.60
2019-04-26T10:16:04.327Z,5.70
2019-04-26T10:18:33.559Z,5.47
2019-04-26T10:21:02.393Z,5.40
2019-04-26T10:23:31.208Z,6.83
2019-04-26T10:26:00.020Z,6.27
2019-04-26T10:28:28.783Z,5.57
2019-04-26T10:30:57.609Z,5.93
2019-04-26T10:33:26.471Z,6.40
2019-04-26T10:35:56.728Z,6.00
2019-04-26T10:38:25.712Z,10.57
2019-04-26T10:40:54.458Z,43.60
2019-04-26T10:43:23.200Z,21.20
2019-04-26T10:45:53.917Z,33.13
2019-04-26T10:48:23.328Z,9.73
2019-04-26T10:50:52.126Z,49.70
2019-04-26T10:53:25.668Z,26.97
2019-04-26T10:56:09.322Z,10.27
2019-04-26T10:58:39.749Z,12.40
2019-04-26T11:01:10.965Z,7.10
2019-04-26T11:03:39.726Z,6.50
2019-04-26T11:06:08.432Z,7.30
2019-04-26T11:08:37.157Z,6.80
2019-04-26T11:11:08.983Z,6.33
2019-04-26T11:13:37.871Z,6.63
2019-04-26T11:16:08.562Z,6.60
2019-04-26T11:18:37.303Z,7.90
2019-04-26T11:21:06.171Z,8.43
2019-04-26T11:23:34.998Z,7.13
2019-04-26T11:28:27.779Z,6.53
2019-04-26T11:30:57.508Z,6.17
2019-04-26T11:33:26.356Z,6.30
2019-04-26T11:35:55.157Z,6.40
2019-04-26T11:38:27.032Z,6.40
2019-04-26T11:41:05.951Z,5.70
2019-04-26T11:43:24.905Z,7.23
2019-04-26T11:46:03.738Z,7.17
2019-04-26T11:48:25.488Z,6.67
2019-04-26T11:50:55.055Z,5.83
2019-04-26T11:53:23.887Z,6.67
2019-04-26T11:55:52.711Z,7.80
2019-04-26T11:58:22.660Z,5.93
2019-04-26T12:00:53.619Z,7.30
2019-04-26T12:03:24.819Z,6.23
2019-04-26T12:05:54.462Z,5.93
2019-04-26T12:08:24.865Z,7.30
2019-04-26T12:10:53.693Z,6.53
2019-04-26T12:13:25.024Z,6.25
2019-04-26T12:15:54.047Z,6.55
2019-04-26T12:18:23.151Z,8.00
2019-04-26T12:20:52.082Z,8.08
2019-04-26T12:23:21.845Z,5.85
2019-04-26T12:25:50.682Z,6.70
2019-04-26T12:28:19.422Z,5.92
2019-04-26T12:30:48.236Z,7.45
2019-04-26T12:33:17.060Z,6.17
2019-04-26T12:35:45.936Z,6.65
2019-04-26T12:38:14.695Z,6.22
2019-04-26T12:40:46.206Z,7.08
2019-04-26T12:43:15.598Z,6.62
2019-04-26T12:45:47.341Z,6.05
2019-04-26T12:48:18.296Z,5.87
2019-04-26T12:50:47.126Z,5.12
2019-04-26T12:53:18.068Z,5.78
2019-04-26T12:55:49.129Z,7.75
2019-04-26T12:58:16.914Z,6.55
2019-04-26T13:00:53.833Z,6.87
2019-04-26T13:03:20.478Z,5.75
2019-04-26T13:05:49.764Z,6.10
2019-04-26T13:08:18.113Z,6.65
2019-04-26T13:10:48.575Z,6.53
2019-04-26T13:13:37.247Z,6.37
2019-04-26T13:16:13.677Z,6.75
2019-04-26T13:18:45.347Z,5.80
2019-04-26T13:21:12.929Z,6.35
2019-04-26T13:23:41.796Z,6.53
2019-04-26T13:26:10.554Z,5.95
2019-04-26T13:28:39.298Z,6.67
2019-04-26T13:31:08.099Z,7.25
2019-04-26T13:33:36.937Z,6.65
2019-04-26T13:36:05.763Z,6.28
2019-04-26T13:38:34.638Z,8.45
2019-04-26T13:41:06.122Z,9.00
2019-04-26T13:43:34.636Z,7.15
2019-04-26T13:46:20.277Z,6.28
2019-04-26T13:49:02.855Z,5.22
2019-04-26T13:51:39.265Z,5.05
2019-04-26T13:54:08.081Z,7.15
2019-04-26T13:56:37.588Z,6.72
2019-04-26T13:59:06.554Z,6.37
2019-04-26T14:01:35.434Z,4.62
2019-04-26T14:04:06.798Z,5.80
2019-04-26T14:06:34.896Z,5.70
2019-04-26T14:09:06.018Z,5.55
2019-04-26T14:11:34.888Z,5.45
2019-04-26T14:14:03.745Z,4.65
2019-04-26T14:16:32.563Z,5.00
2019-04-26T14:19:01.343Z,5.62
2019-04-26T14:21:33.183Z,5.55
2019-04-26T14:24:02.259Z,4.60
2019-04-26T14:26:39.983Z,5.37
2019-04-26T14:29:08.729Z,5.00
2019-04-26T14:31:37.535Z,4.83
2019-04-26T14:34:07.096Z,4.78
2019-04-26T14:36:36.111Z,6.28
2019-04-26T14:39:10.712Z,5.40
2019-04-26T14:41:38.325Z,4.50
2019-04-26T14:44:15.205Z,5.83
2019-04-26T14:46:48.233Z,5.55
2019-04-26T14:49:08.099Z,5.72
2019-04-26T14:51:36.923Z,6.65
2019-04-26T14:54:07.341Z,5.45
2019-04-26T14:56:36.168Z,5.72
2019-04-26T14:59:08.036Z,4.72
2019-04-26T15:01:42.605Z,4.67
2019-04-26T15:04:29.200Z,6.20
2019-04-26T15:06:59.671Z,4.87
2019-04-26T15:09:33.281Z,5.30
2019-04-26T15:12:01.354Z,5.58
2019-04-26T15:14:29.621Z,5.67
2019-04-26T15:16:58.393Z,5.28
2019-04-26T15:19:27.216Z,4.90
2019-04-26T15:21:56.029Z,4.35
2019-04-26T15:24:25.966Z,5.40
2019-04-26T15:26:58.172Z,4.92
2019-04-26T15:29:27.030Z,4.90
2019-04-26T15:31:57.251Z,4.95
2019-04-26T15:34:26.551Z,5.10
2019-04-26T15:36:55.526Z,5.08
2019-04-26T15:39:25.940Z,4.70
2019-04-26T15:41:59.330Z,4.87
2019-04-26T15:44:35.479Z,4.80
2019-04-26T15:47:06.036Z,5.07
2019-04-26T15:49:42.907Z,5.20
2019-04-26T15:52:11.891Z,4.85
2019-04-26T15:54:42.400Z,5.13
2019-04-26T15:57:12.359Z,5.37
2019-04-26T15:59:42.887Z,4.50
2019-04-26T16:02:12.490Z,5.40
2019-04-26T16:04:42.432Z,5.13
2019-04-26T16:07:16.649Z,5.27
2019-04-26T16:09:43.587Z,5.30
2019-04-26T16:12:13.371Z,5.70
2019-04-26T16:14:42.476Z,5.80
2019-04-26T16:17:12.490Z,5.40
2019-04-26T16:19:41.425Z,5.30
2019-04-26T16:22:10.346Z,5.13
2019-04-26T16:24:39.191Z,5.33
2019-04-26T16:27:08.009Z,5.20
2019-04-26T16:29:59.542Z,5.53
2019-04-26T16:32:37.367Z,4.93
2019-04-26T16:35:07.434Z,6.53
2019-04-26T16:37:36.195Z,5.27
2019-04-26T16:40:07.845Z,5.77
2019-04-26T16:42:37.269Z,6.57
2019-04-26T16:45:09.392Z,5.53
2019-04-26T16:47:45.152Z,5.87
2019-04-26T16:50:09.299Z,5.50
2019-04-26T16:52:42.218Z,5.30
2019-04-26T16:55:18.232Z,5.90
2019-04-26T16:57:43.912Z,6.13
2019-04-26T17:00:09.604Z,7.13
2019-04-26T17:02:38.409Z,9.90
2019-04-26T17:05:19.150Z,15.47
2019-04-26T17:07:39.382Z,10.20
2019-04-26T17:10:08.445Z,18.30
2019-04-26T17:12:37.294Z,16.73
2019-04-26T17:15:07.526Z,116.60
2019-04-26T17:17:36.366Z,391.00
2019-04-26T17:20:10.755Z,68.50
2019-04-26T17:22:56.239Z,104.07
2019-04-26T17:25:26.768Z,52.43
2019-04-26T17:27:53.409Z,58.60
2019-04-26T17:30:23.803Z,203.03
2019-04-26T17:32:53.598Z,246.40
2019-04-26T17:35:23.230Z,222.53
2019-04-26T17:37:52.015Z,190.00
2019-04-26T17:40:25.153Z,107.80
2019-04-26T17:42:51.275Z,41.47
2019-04-26T17:45:21.246Z,42.33
2019-04-26T17:47:50.696Z,31.80
2019-04-26T17:50:20.605Z,23.90
2019-04-26T17:52:51.424Z,24.43
2019-04-26T17:55:20.059Z,25.30
2019-04-26T17:57:50.697Z,26.40
2019-04-26T18:00:26.716Z,24.73
2019-04-26T18:02:51.534Z,23.07
2019-04-26T18:05:24.501Z,23.50
2019-04-26T18:07:59.373Z,20.23
2019-04-26T18:10:21.336Z,14.43
2019-04-26T18:12:50.800Z,14.30
2019-04-26T18:15:19.692Z,15.77
2019-04-26T18:17:53.423Z,15.00
2019-04-26T18:20:23.801Z,18.90
2019-04-26T18:22:54.212Z,16.70
2019-04-26T18:25:23.428Z,26.13
2019-04-26T18:27:53.503Z,26.97
2019-04-26T18:30:23.667Z,22.57
2019-04-26T18:32:52.518Z,19.20
2019-04-26T18:35:21.343Z,20.97
2019-04-26T18:37:50.232Z,21.83
2019-04-26T18:40:20.619Z,24.03
2019-04-26T18:42:49.642Z,24.80
2019-04-26T18:45:25.886Z,26.70
2019-04-26T18:47:48.880Z,27.10
2019-04-26T18:50:18.745Z,29.17
2019-04-26T18:52:49.276Z,28.33
2019-04-26T18:55:29.046Z,28.57
2019-04-26T18:57:55.212Z,30.50
2019-04-26T19:00:29.094Z,28.37
2019-04-26T19:03:00.040Z,30.77
2019-04-26T19:05:30.233Z,29.73
2019-04-26T19:07:59.110Z,31.50
2019-04-26T19:10:29.304Z,33.03
2019-04-26T19:13:00.371Z,31.70
2019-04-26T19:15:40.382Z,32.13
2019-04-26T19:18:06.693Z,32.20
2019-04-26T19:20:40.259Z,34.70
2019-04-26T19:23:09.483Z,37.93
2019-04-26T19:25:40.944Z,46.87
2019-04-26T19:28:08.824Z,44.90
2019-04-26T19:30:39.950Z,44.67
2019-04-26T19:33:11.591Z,48.93
2019-04-26T19:35:39.376Z,41.17
2019-04-26T19:38:13.396Z,45.20
2019-04-26T19:40:46.376Z,40.23
2019-04-26T19:43:10.100Z,39.10
2019-04-26T19:45:46.125Z,32.70
2019-04-26T19:48:20.778Z,30.50
2019-04-26T19:50:52.794Z,33.27
2019-04-26T19:53:24.806Z,33.63
2019-04-26T19:56:07.414Z,30.87
2019-04-26T19:58:45.876Z,26.10
2019-04-26T20:01:16.628Z,25.37
2019-04-26T20:03:47.270Z,24.67
2019-04-26T20:06:19.114Z,23.60
2019-04-26T20:08:49.354Z,21.33
2019-04-26T20:11:18.724Z,17.40
2019-04-26T20:13:51.874Z,15.60
2019-04-26T20:16:17.478Z,14.67
2019-04-26T20:18:46.327Z,12.93
2019-04-26T20:21:15.562Z,13.83
2019-04-26T20:23:47.420Z,10.33
2019-04-26T20:26:15.950Z,10.80
2019-04-26T20:28:44.663Z,9.27
2019-04-26T20:31:15.099Z,9.00
2019-04-26T20:33:43.854Z,8.97
2019-04-26T20:36:12.762Z,9.90
2019-04-26T20:38:45.658Z,9.10
2019-04-26T20:41:14.777Z,8.90
2019-04-26T20:43:47.002Z,9.63
2019-04-26T20:46:15.493Z,9.63
2019-04-26T20:48:43.836Z,10.37
2019-04-26T20:51:12.780Z,9.63
2019-04-26T20:53:43.649Z,9.50
2019-04-26T20:56:18.310Z,9.47
2019-04-26T20:58:46.885Z,10.83
2019-04-26T21:01:14.286Z,10.40
2019-04-26T21:03:46.060Z,10.10
2019-04-26T21:06:14.551Z,10.60
2019-04-26T21:08:43.356Z,11.33
2019-04-26T21:11:13.723Z,10.13
2019-04-26T21:13:42.707Z,10.60
2019-04-26T21:16:15.394Z,10.50
2019-04-26T21:18:44.285Z,10.83
2019-04-26T21:21:15.635Z,10.50
2019-04-26T21:23:43.994Z,11.10
2019-04-26T21:26:16.406Z,12.13
2019-04-26T21:29:06.718Z,12.53
2019-04-26T21:31:40.856Z,11.70
2019-04-26T21:34:24.337Z,12.50
2019-04-26T21:37:03.529Z,12.70
2019-04-26T21:39:39.485Z,13.53
2019-04-26T21:42:08.793Z,13.17
2019-04-26T21:44:37.606Z,12.70
2019-04-26T21:47:06.503Z,12.13
2019-04-26T21:49:38.015Z,12.67
2019-04-26T21:52:05.746Z,11.40
2019-04-26T21:54:34.527Z,11.17
2019-04-26T21:57:03.767Z,12.33
2019-04-26T21:59:35.120Z,12.60
2019-04-26T22:02:03.415Z,12.47
2019-04-26T22:04:34.197Z,11.90
2019-04-26T22:07:06.355Z,12.37
2019-04-26T22:09:36.833Z,11.90
2019-04-26T22:12:07.314Z,12.03
2019-04-26T22:14:37.728Z,11.97
2019-04-26T22:17:11.275Z,12.13
2019-04-26T22:19:44.435Z,12.07
2019-04-26T22:22:20.568Z,12.17
2019-04-26T22:24:55.486Z,11.90
2019-04-26T22:27:25.354Z,12.07
2019-04-26T22:29:55.113Z,11.63
2019-04-26T22:32:24.099Z,11.10
2019-04-26T22:34:53.884Z,11.47
2019-04-26T22:37:29.717Z,11.07
2019-04-26T22:39:54.328Z,11.00
2019-04-26T22:42:23.943Z,11.20
2019-04-26T22:44:54.400Z,11.43
2019-04-26T22:47:24.804Z,11.03
2019-04-26T22:49:53.588Z,10.33
2019-04-26T22:52:23.074Z,9.87
2019-04-26T22:54:53.698Z,10.27
2019-04-26T22:57:23.197Z,10.37
2019-04-26T22:59:53.544Z,10.20
2019-04-26T23:02:25.883Z,10.60
2019-04-26T23:04:56.030Z,10.43
2019-04-26T23:07:26.128Z,10.60
2019-04-26T23:09:55.483Z,10.73
2019-04-26T23:12:28.256Z,11.17
2019-04-26T23:15:14.151Z,10.40
2019-04-26T23:17:59.419Z,9.90
2019-04-26T23:20:34.295Z,10.37
2019-04-26T23:23:00.527Z,11.20
2019-04-26T23:25:31.183Z,11.43
2019-04-26T23:28:00.111Z,11.37
2019-04-26T23:30:31.727Z,11.67
2019-04-26T23:32:59.455Z,12.83
2019-04-26T23:35:28.780Z,15.70
2019-04-26T23:38:00.985Z,15.87
2019-04-26T23:40:28.993Z,14.80
2019-04-26T23:42:57.918Z,12.33
2019-04-26T23:45:26.743Z,11.97
2019-04-26T23:47:55.586Z,12.70
2019-04-26T23:50:25.526Z,12.73
2019-04-26T23:52:54.853Z,11.33
2019-04-26T23:55:23.707Z,11.17
2019-04-26T23:57:53.456Z,10.93
